sensor_id;sensor_type;location;lat;lon;timestamp;temperature;humidity
2721;DHT22;1368;49.484;11.112;2023-11-21T00:02:25;10.20;99.90
2721;DHT22;1368;49.484;11.112;2023-11-21T00:04:50;10.30;99.90
2721;DHT22;1368;49.484;11.112;2023-11-21T00:07:17;10.20;99.90
2721;DHT22;1368;49.484;11.112;2023-11-21T00:09:43;10.30;99.90
2721;DHT22;1368;49.484;11.112;2023-11-21T00:12:08;10.30;99.90
2721;DHT22;1368;49.484;11.112;2023-11-21T00:14:37;10.30;99.90
2721;DHT22;1368;49.484;11.112;2023-11-21T00:17:04;10.10;99.90
2721;DHT22;1368;49.484;11.112;2023-11-21T00:19:30;10.20;99.90
2721;DHT22;1368;49.484;11.112;2023-11-21T00:21:55;10.20;99.90
2721;DHT22;1368;49.484;11.112;2023-11-21T00:24:23;10.30;99.90
2721;DHT22;1368;49.484;11.112;2023-11-21T00:26:50;10.40;99.90
2721;DHT22;1368;49.484;11.112;2023-11-21T00:29:15;10.40;99.90
2721;DHT22;1368;49.484;11.112;2023-11-21T00:31:43;10.40;99.90
2721;DHT22;1368;49.484;11.112;2023-11-21T00:34:11;10.50;99.90
2721;DHT22;1368;49.484;11.112;2023-11-21T00:36:37;10.10;99.90
2721;DHT22;1368;49.484;11.112;2023-11-21T00:39:02;10.00;99.90
2721;DHT22;1368;49.484;11.112;2023-11-21T00:41:28;10.20;99.90
2721;DHT22;1368;49.484;11.112;2023-11-21T00:43:54;10.20;99.90
2721;DHT22;1368;49.484;11.112;2023-11-21T00:46:20;10.00;99.90
2721;DHT22;1368;49.484;11.112;2023-11-21T00:48:46;10.10;99.90
2721;DHT22;1368;49.484;11.112;2023-11-21T00:51:12;10.20;99.90
2721;DHT22;1368;49.484;11.112;2023-11-21T00:53:37;10.10;99.90
2721;DHT22;1368;49.484;11.112;2023-11-21T00:56:03;9.90;99.90
2721;DHT22;1368;49.484;11.112;2023-11-21T00:58:29;9.70;99.90
2721;DHT22;1368;49.484;11.112;2023-11-21T01:00:55;9.80;99.90
2721;DHT22;1368;49.484;11.112;2023-11-21T01:03:21;9.90;99.90
2721;DHT22;1368;49.484;11.112;2023-11-21T01:05:47;10.00;99.90
2721;DHT22;1368;49.484;11.112;2023-11-21T01:08:14;9.90;99.90
2721;DHT22;1368;49.484;11.112;2023-11-21T01:10:40;10.00;99.90
2721;DHT22;1368;49.484;11.112;2023-11-21T01:13:06;10.00;99.90
2721;DHT22;1368;49.484;11.112;2023-11-21T01:15:32;10.10;99.90
2721;DHT22;1368;49.484;11.112;2023-11-21T01:17:58;10.20;99.90
2721;DHT22;1368;49.484;11.112;2023-11-21T01:20:23;10.00;99.90
2721;DHT22;1368;49.484;11.112;2023-11-21T01:22:49;9.90;99.90
2721;DHT22;1368;49.484;11.112;2023-11-21T01:25:14;10.00;99.90
2721;DHT22;1368;49.484;11.112;2023-11-21T01:27:41;10.10;99.90
2721;DHT22;1368;49.484;11.112;2023-11-21T01:30:07;9.90;99.90
2721;DHT22;1368;49.484;11.112;2023-11-21T01:32:36;10.00;99.90
2721;DHT22;1368;49.484;11.112;2023-11-21T01:35:02;10.10;99.90
2721;DHT22;1368;49.484;11.112;2023-11-21T01:37:27;10.20;99.90
2721;DHT22;1368;49.484;11.112;2023-11-21T01:39:54;9.80;99.90
2721;DHT22;1368;49.484;11.112;2023-11-21T01:42:20;9.80;99.90
2721;DHT22;1368;49.484;11.112;2023-11-21T01:44:46;9.80;99.90
2721;DHT22;1368;49.484;11.112;2023-11-21T01:47:13;9.80;99.90
2721;DHT22;1368;49.484;11.112;2023-11-21T01:49:39;9.80;99.90
2721;DHT22;1368;49.484;11.112;2023-11-21T01:52:06;9.70;99.90
2721;DHT22;1368;49.484;11.112;2023-11-21T01:54:32;9.80;99.90
2721;DHT22;1368;49.484;11.112;2023-11-21T01:56:58;9.90;99.90
2721;DHT22;1368;49.484;11.112;2023-11-21T01:59:38;10.00;99.90
2721;DHT22;1368;49.484;11.112;2023-11-21T02:02:07;10.10;99.90
2721;DHT22;1368;49.484;11.112;2023-11-21T02:04:35;10.20;99.90
2721;DHT22;1368;49.484;11.112;2023-11-21T02:07:02;9.90;99.90
2721;DHT22;1368;49.484;11.112;2023-11-21T02:09:30;9.90;99.90
2721;DHT22;1368;49.484;11.112;2023-11-21T02:11:56;10.00;99.90
2721;DHT22;1368;49.484;11.112;2023-11-21T02:14:24;10.10;99.90
2721;DHT22;1368;49.484;11.112;2023-11-21T02:16:52;10.20;99.90
2721;DHT22;1368;49.484;11.112;2023-11-21T02:19:18;10.10;99.90
2721;DHT22;1368;49.484;11.112;2023-11-21T02:21:56;10.20;99.90
2721;DHT22;1368;49.484;11.112;2023-11-21T02:24:25;10.10;99.90
2721;DHT22;1368;49.484;11.112;2023-11-21T02:26:51;10.20;99.90
2721;DHT22;1368;49.484;11.112;2023-11-21T02:29:18;10.10;99.90
2721;DHT22;1368;49.484;11.112;2023-11-21T02:31:45;10.20;99.90
2721;DHT22;1368;49.484;11.112;2023-11-21T02:34:17;10.20;99.90
2721;DHT22;1368;49.484;11.112;2023-11-21T02:36:44;10.30;99.90
2721;DHT22;1368;49.484;11.112;2023-11-21T02:39:10;10.20;99.90
2721;DHT22;1368;49.484;11.112;2023-11-21T02:41:37;10.10;99.90
2721;DHT22;1368;49.484;11.112;2023-11-21T02:44:03;10.10;99.90
2721;DHT22;1368;49.484;11.112;2023-11-21T02:46:29;10.20;99.90
2721;DHT22;1368;49.484;11.112;2023-11-21T02:48:55;10.00;99.90
2721;DHT22;1368;49.484;11.112;2023-11-21T02:51:20;9.90;99.90
2721;DHT22;1368;49.484;11.112;2023-11-21T02:53:46;9.90;99.90
2721;DHT22;1368;49.484;11.112;2023-11-21T02:56:12;9.80;99.90
2721;DHT22;1368;49.484;11.112;2023-11-21T02:58:41;9.70;99.90
2721;DHT22;1368;49.484;11.112;2023-11-21T03:01:06;9.80;99.90
2721;DHT22;1368;49.484;11.112;2023-11-21T03:03:33;9.80;99.90
2721;DHT22;1368;49.484;11.112;2023-11-21T03:05:59;9.80;99.90
2721;DHT22;1368;49.484;11.112;2023-11-21T03:08:24;9.90;99.90
2721;DHT22;1368;49.484;11.112;2023-11-21T03:10:50;9.90;99.90
2721;DHT22;1368;49.484;11.112;2023-11-21T03:13:15;10.60;99.90
2721;DHT22;1368;49.484;11.112;2023-11-21T03:15:41;10.00;99.90
2721;DHT22;1368;49.484;11.112;2023-11-21T03:18:08;10.40;99.90
2721;DHT22;1368;49.484;11.112;2023-11-21T03:20:33;9.90;99.90
2721;DHT22;1368;49.484;11.112;2023-11-21T03:23:00;10.00;99.90
2721;DHT22;1368;49.484;11.112;2023-11-21T03:25:25;10.10;99.90
2721;DHT22;1368;49.484;11.112;2023-11-21T03:27:51;10.10;99.90
2721;DHT22;1368;49.484;11.112;2023-11-21T03:30:16;10.10;99.90
2721;DHT22;1368;49.484;11.112;2023-11-21T03:32:42;10.10;99.90
2721;DHT22;1368;49.484;11.112;2023-11-21T03:35:07;9.80;99.90
2721;DHT22;1368;49.484;11.112;2023-11-21T03:37:33;9.70;99.90
2721;DHT22;1368;49.484;11.112;2023-11-21T03:39:59;9.70;99.90
2721;DHT22;1368;49.484;11.112;2023-11-21T03:42:24;9.80;99.90
2721;DHT22;1368;49.484;11.112;2023-11-21T03:44:52;9.90;99.90
2721;DHT22;1368;49.484;11.112;2023-11-21T03:47:17;10.00;99.90
2721;DHT22;1368;49.484;11.112;2023-11-21T03:49:44;10.00;99.90
2721;DHT22;1368;49.484;11.112;2023-11-21T03:52:11;9.90;99.90
2721;DHT22;1368;49.484;11.112;2023-11-21T03:54:37;10.00;99.90
2721;DHT22;1368;49.484;11.112;2023-11-21T03:57:03;9.80;99.90
2721;DHT22;1368;49.484;11.112;2023-11-21T03:59:28;9.80;99.90
2721;DHT22;1368;49.484;11.112;2023-11-21T04:01:56;9.90;99.90
2721;DHT22;1368;49.484;11.112;2023-11-21T04:04:22;9.50;99.90
2721;DHT22;1368;49.484;11.112;2023-11-21T04:06:47;9.70;99.90
2721;DHT22;1368;49.484;11.112;2023-11-21T04:09:13;9.90;99.90
2721;DHT22;1368;49.484;11.112;2023-11-21T04:11:39;10.10;99.90
2721;DHT22;1368;49.484;11.112;2023-11-21T04:14:04;10.20;99.90
2721;DHT22;1368;49.484;11.112;2023-11-21T04:16:30;10.30;99.90
2721;DHT22;1368;49.484;11.112;2023-11-21T04:18:55;10.40;99.90
2721;DHT22;1368;49.484;11.112;2023-11-21T04:21:21;10.50;99.90
2721;DHT22;1368;49.484;11.112;2023-11-21T04:23:46;10.50;99.90
2721;DHT22;1368;49.484;11.112;2023-11-21T04:26:12;10.50;99.90
2721;DHT22;1368;49.484;11.112;2023-11-21T04:28:37;10.50;99.90
2721;DHT22;1368;49.484;11.112;2023-11-21T04:31:03;10.50;99.90
2721;DHT22;1368;49.484;11.112;2023-11-21T04:33:28;10.60;99.90
2721;DHT22;1368;49.484;11.112;2023-11-21T04:35:54;10.60;99.90
2721;DHT22;1368;49.484;11.112;2023-11-21T04:38:20;10.60;99.90
2721;DHT22;1368;49.484;11.112;2023-11-21T04:40:45;10.60;99.90
2721;DHT22;1368;49.484;11.112;2023-11-21T04:43:11;10.70;99.90
2721;DHT22;1368;49.484;11.112;2023-11-21T04:45:37;10.80;99.90
2721;DHT22;1368;49.484;11.112;2023-11-21T04:48:03;10.80;99.90
2721;DHT22;1368;49.484;11.112;2023-11-21T04:50:29;10.80;99.90
2721;DHT22;1368;49.484;11.112;2023-11-21T04:52:54;10.80;99.90
2721;DHT22;1368;49.484;11.112;2023-11-21T04:55:20;10.80;99.90
2721;DHT22;1368;49.484;11.112;2023-11-21T04:57:45;10.80;99.90
2721;DHT22;1368;49.484;11.112;2023-11-21T05:00:12;10.80;99.90
2721;DHT22;1368;49.484;11.112;2023-11-21T05:02:39;10.90;99.90
2721;DHT22;1368;49.484;11.112;2023-11-21T05:05:05;10.80;99.90
2721;DHT22;1368;49.484;11.112;2023-11-21T05:07:32;10.80;99.90
2721;DHT22;1368;49.484;11.112;2023-11-21T05:09:57;10.80;99.90
2721;DHT22;1368;49.484;11.112;2023-11-21T05:12:23;11.40;99.90
2721;DHT22;1368;49.484;11.112;2023-11-21T05:14:52;10.80;99.90
2721;DHT22;1368;49.484;11.112;2023-11-21T05:17:18;10.80;99.90
2721;DHT22;1368;49.484;11.112;2023-11-21T05:19:43;10.80;99.90
2721;DHT22;1368;49.484;11.112;2023-11-21T05:22:10;10.80;99.90
2721;DHT22;1368;49.484;11.112;2023-11-21T05:24:37;10.70;99.90
2721;DHT22;1368;49.484;11.112;2023-11-21T05:27:04;10.70;99.90
2721;DHT22;1368;49.484;11.112;2023-11-21T05:29:30;10.70;99.90
2721;DHT22;1368;49.484;11.112;2023-11-21T05:31:55;10.70;99.90
2721;DHT22;1368;49.484;11.112;2023-11-21T05:34:21;10.80;99.90
2721;DHT22;1368;49.484;11.112;2023-11-21T05:36:49;10.70;99.90
2721;DHT22;1368;49.484;11.112;2023-11-21T05:39:15;10.90;99.90
2721;DHT22;1368;49.484;11.112;2023-11-21T05:41:42;10.90;99.90
2721;DHT22;1368;49.484;11.112;2023-11-21T05:44:08;11.00;99.90
2721;DHT22;1368;49.484;11.112;2023-11-21T05:46:34;11.00;99.90
2721;DHT22;1368;49.484;11.112;2023-11-21T05:49:00;11.00;99.90
2721;DHT22;1368;49.484;11.112;2023-11-21T05:51:25;10.80;99.90
2721;DHT22;1368;49.484;11.112;2023-11-21T05:53:51;10.60;99.90
2721;DHT22;1368;49.484;11.112;2023-11-21T05:56:16;10.70;99.90
2721;DHT22;1368;49.484;11.112;2023-11-21T05:58:43;10.60;99.90
2721;DHT22;1368;49.484;11.112;2023-11-21T06:01:08;10.70;99.90
2721;DHT22;1368;49.484;11.112;2023-11-21T06:03:35;10.80;99.90
2721;DHT22;1368;49.484;11.112;2023-11-21T06:06:00;10.80;99.90
2721;DHT22;1368;49.484;11.112;2023-11-21T06:08:26;10.80;99.90
2721;DHT22;1368;49.484;11.112;2023-11-21T06:10:51;10.80;99.90
2721;DHT22;1368;49.484;11.112;2023-11-21T06:13:17;10.80;99.90
2721;DHT22;1368;49.484;11.112;2023-11-21T06:15:46;10.70;99.90
2721;DHT22;1368;49.484;11.112;2023-11-21T06:18:11;10.60;99.90
2721;DHT22;1368;49.484;11.112;2023-11-21T06:20:37;10.60;99.90
2721;DHT22;1368;49.484;11.112;2023-11-21T06:23:02;10.50;99.90
2721;DHT22;1368;49.484;11.112;2023-11-21T06:25:29;10.40;99.90
2721;DHT22;1368;49.484;11.112;2023-11-21T06:27:54;10.40;99.90
2721;DHT22;1368;49.484;11.112;2023-11-21T06:30:20;10.40;99.90
2721;DHT22;1368;49.484;11.112;2023-11-21T06:32:47;10.40;99.90
2721;DHT22;1368;49.484;11.112;2023-11-21T06:35:12;10.20;99.90
2721;DHT22;1368;49.484;11.112;2023-11-21T06:37:38;9.90;99.90
2721;DHT22;1368;49.484;11.112;2023-11-21T06:40:04;9.80;99.90
2721;DHT22;1368;49.484;11.112;2023-11-21T06:42:30;10.00;99.90
2721;DHT22;1368;49.484;11.112;2023-11-21T06:44:57;10.20;99.90
2721;DHT22;1368;49.484;11.112;2023-11-21T06:47:26;10.40;99.90
2721;DHT22;1368;49.484;11.112;2023-11-21T06:49:52;10.40;99.90
2721;DHT22;1368;49.484;11.112;2023-11-21T06:52:18;10.50;99.90
2721;DHT22;1368;49.484;11.112;2023-11-21T06:54:44;10.60;99.90
2721;DHT22;1368;49.484;11.112;2023-11-21T06:57:10;10.70;99.90
2721;DHT22;1368;49.484;11.112;2023-11-21T06:59:36;10.80;99.90
2721;DHT22;1368;49.484;11.112;2023-11-21T07:04:49;10.90;99.90
2721;DHT22;1368;49.484;11.112;2023-11-21T07:10:29;10.90;99.90
2721;DHT22;1368;49.484;11.112;2023-11-21T07:12:55;10.90;99.90
2721;DHT22;1368;49.484;11.112;2023-11-21T07:15:22;11.00;99.90
2721;DHT22;1368;49.484;11.112;2023-11-21T07:17:48;11.00;99.90
2721;DHT22;1368;49.484;11.112;2023-11-21T07:20:13;11.00;99.90
2721;DHT22;1368;49.484;11.112;2023-11-21T07:22:42;11.10;99.90
2721;DHT22;1368;49.484;11.112;2023-11-21T07:25:08;11.20;99.90
2721;DHT22;1368;49.484;11.112;2023-11-21T07:27:35;11.20;99.90
2721;DHT22;1368;49.484;11.112;2023-11-21T07:30:01;11.30;99.90
2721;DHT22;1368;49.484;11.112;2023-11-21T07:32:30;11.30;99.90
2721;DHT22;1368;49.484;11.112;2023-11-21T07:34:55;11.30;99.90
2721;DHT22;1368;49.484;11.112;2023-11-21T07:37:23;11.30;99.90
2721;DHT22;1368;49.484;11.112;2023-11-21T07:39:49;11.40;99.90
2721;DHT22;1368;49.484;11.112;2023-11-21T07:42:14;11.40;99.90
2721;DHT22;1368;49.484;11.112;2023-11-21T07:44:40;11.40;99.90
2721;DHT22;1368;49.484;11.112;2023-11-21T07:47:05;11.50;99.90
2721;DHT22;1368;49.484;11.112;2023-11-21T07:49:31;11.50;99.90
2721;DHT22;1368;49.484;11.112;2023-11-21T07:51:56;11.40;99.90
2721;DHT22;1368;49.484;11.112;2023-11-21T07:54:22;11.40;99.90
2721;DHT22;1368;49.484;11.112;2023-11-21T07:56:47;11.50;99.90
2721;DHT22;1368;49.484;11.112;2023-11-21T07:59:13;11.70;99.90
2721;DHT22;1368;49.484;11.112;2023-11-21T08:01:39;11.70;99.90
2721;DHT22;1368;49.484;11.112;2023-11-21T08:04:06;11.90;99.90
2721;DHT22;1368;49.484;11.112;2023-11-21T08:06:32;11.90;99.90
2721;DHT22;1368;49.484;11.112;2023-11-21T08:08:58;12.00;99.90
2721;DHT22;1368;49.484;11.112;2023-11-21T08:11:24;12.00;99.90
2721;DHT22;1368;49.484;11.112;2023-11-21T08:13:49;12.10;99.90
2721;DHT22;1368;49.484;11.112;2023-11-21T08:16:15;12.70;99.90
2721;DHT22;1368;49.484;11.112;2023-11-21T08:18:42;12.10;99.90
2721;DHT22;1368;49.484;11.112;2023-11-21T08:21:07;12.20;99.90
2721;DHT22;1368;49.484;11.112;2023-11-21T08:23:33;12.10;99.90
2721;DHT22;1368;49.484;11.112;2023-11-21T08:26:00;12.10;99.90
2721;DHT22;1368;49.484;11.112;2023-11-21T08:28:25;12.20;99.90
2721;DHT22;1368;49.484;11.112;2023-11-21T08:30:52;12.20;99.90
2721;DHT22;1368;49.484;11.112;2023-11-21T08:33:18;12.20;99.90
2721;DHT22;1368;49.484;11.112;2023-11-21T08:35:44;12.20;99.90
2721;DHT22;1368;49.484;11.112;2023-11-21T08:38:11;12.30;99.90
2721;DHT22;1368;49.484;11.112;2023-11-21T08:40:37;12.30;99.90
2721;DHT22;1368;49.484;11.112;2023-11-21T08:43:03;12.30;99.90
2721;DHT22;1368;49.484;11.112;2023-11-21T08:45:30;12.90;99.90
2721;DHT22;1368;49.484;11.112;2023-11-21T08:50:31;12.30;99.90
2721;DHT22;1368;49.484;11.112;2023-11-21T08:52:56;12.30;99.90
2721;DHT22;1368;49.484;11.112;2023-11-21T08:55:22;12.30;99.90
2721;DHT22;1368;49.484;11.112;2023-11-21T08:57:48;12.30;99.90
2721;DHT22;1368;49.484;11.112;2023-11-21T09:00:13;12.70;99.90
2721;DHT22;1368;49.484;11.112;2023-11-21T09:02:42;12.40;99.90
2721;DHT22;1368;49.484;11.112;2023-11-21T09:05:09;12.50;99.90
2721;DHT22;1368;49.484;11.112;2023-11-21T09:07:35;12.50;99.90
2721;DHT22;1368;49.484;11.112;2023-11-21T09:10:01;12.50;99.90
2721;DHT22;1368;49.484;11.112;2023-11-21T09:12:27;12.30;99.90
2721;DHT22;1368;49.484;11.112;2023-11-21T09:14:53;12.50;99.90
2721;DHT22;1368;49.484;11.112;2023-11-21T09:17:18;12.40;99.90
2721;DHT22;1368;49.484;11.112;2023-11-21T09:19:44;12.50;99.90
2721;DHT22;1368;49.484;11.112;2023-11-21T09:22:17;12.70;99.90
2721;DHT22;1368;49.484;11.112;2023-11-21T09:24:42;12.80;99.90
2721;DHT22;1368;49.484;11.112;2023-11-21T09:27:08;12.90;99.90
2721;DHT22;1368;49.484;11.112;2023-11-21T09:29:35;13.00;99.90
2721;DHT22;1368;49.484;11.112;2023-11-21T09:32:00;12.90;99.90
2721;DHT22;1368;49.484;11.112;2023-11-21T09:34:26;12.80;99.90
2721;DHT22;1368;49.484;11.112;2023-11-21T09:36:52;13.50;99.90
2721;DHT22;1368;49.484;11.112;2023-11-21T09:39:18;13.20;99.90
2721;DHT22;1368;49.484;11.112;2023-11-21T09:41:49;13.40;99.90
2721;DHT22;1368;49.484;11.112;2023-11-21T09:44:18;13.50;99.90
2721;DHT22;1368;49.484;11.112;2023-11-21T09:46:47;13.50;99.90
2721;DHT22;1368;49.484;11.112;2023-11-21T09:49:15;13.60;99.90
2721;DHT22;1368;49.484;11.112;2023-11-21T09:51:43;13.80;99.90
2721;DHT22;1368;49.484;11.112;2023-11-21T09:54:10;13.50;99.90
2721;DHT22;1368;49.484;11.112;2023-11-21T09:56:40;13.50;99.90
2721;DHT22;1368;49.484;11.112;2023-11-21T09:59:06;13.60;99.90
2721;DHT22;1368;49.484;11.112;2023-11-21T10:01:36;13.60;99.90
2721;DHT22;1368;49.484;11.112;2023-11-21T10:04:02;13.60;99.90
2721;DHT22;1368;49.484;11.112;2023-11-21T10:06:28;13.70;99.90
2721;DHT22;1368;49.484;11.112;2023-11-21T10:08:56;13.70;99.90
2721;DHT22;1368;49.484;11.112;2023-11-21T10:11:25;13.70;99.90
2721;DHT22;1368;49.484;11.112;2023-11-21T10:13:53;14.00;99.90
2721;DHT22;1368;49.484;11.112;2023-11-21T10:16:20;14.10;99.90
2721;DHT22;1368;49.484;11.112;2023-11-21T10:18:49;14.30;99.90
2721;DHT22;1368;49.484;11.112;2023-11-21T10:21:18;14.60;99.90
2721;DHT22;1368;49.484;11.112;2023-11-21T10:23:44;14.30;99.90
2721;DHT22;1368;49.484;11.112;2023-11-21T10:26:11;14.20;99.90
2721;DHT22;1368;49.484;11.112;2023-11-21T10:28:54;14.50;99.90
2721;DHT22;1368;49.484;11.112;2023-11-21T10:31:21;14.10;99.90
2721;DHT22;1368;49.484;11.112;2023-11-21T10:33:46;14.00;99.90
2721;DHT22;1368;49.484;11.112;2023-11-21T10:36:12;13.70;99.90
2721;DHT22;1368;49.484;11.112;2023-11-21T10:38:42;13.60;99.90
2721;DHT22;1368;49.484;11.112;2023-11-21T10:41:11;13.70;99.90
2721;DHT22;1368;49.484;11.112;2023-11-21T10:43:40;14.00;99.90
2721;DHT22;1368;49.484;11.112;2023-11-21T10:46:07;14.20;99.90
2721;DHT22;1368;49.484;11.112;2023-11-21T10:48:33;13.60;99.90
2721;DHT22;1368;49.484;11.112;2023-11-21T10:51:09;13.70;99.90
2721;DHT22;1368;49.484;11.112;2023-11-21T10:53:39;13.80;99.90
2721;DHT22;1368;49.484;11.112;2023-11-21T10:56:06;14.00;99.90
2721;DHT22;1368;49.484;11.112;2023-11-21T10:58:35;13.80;99.90
2721;DHT22;1368;49.484;11.112;2023-11-21T11:01:02;13.60;99.90
2721;DHT22;1368;49.484;11.112;2023-11-21T11:03:32;13.40;99.90
2721;DHT22;1368;49.484;11.112;2023-11-21T11:05:59;13.30;99.90
2721;DHT22;1368;49.484;11.112;2023-11-21T11:08:25;13.30;99.90
2721;DHT22;1368;49.484;11.112;2023-11-21T11:10:52;13.40;99.90
2721;DHT22;1368;49.484;11.112;2023-11-21T11:13:18;13.60;99.90
2721;DHT22;1368;49.484;11.112;2023-11-21T11:15:47;13.90;99.90
2721;DHT22;1368;49.484;11.112;2023-11-21T11:18:13;14.10;99.90
2721;DHT22;1368;49.484;11.112;2023-11-21T11:20:40;14.50;99.90
2721;DHT22;1368;49.484;11.112;2023-11-21T11:23:13;13.90;99.90
2721;DHT22;1368;49.484;11.112;2023-11-21T11:29:03;13.70;99.90
2721;DHT22;1368;49.484;11.112;2023-11-21T11:34:23;13.10;99.90
2721;DHT22;1368;49.484;11.112;2023-11-21T11:37:02;13.10;99.90
2721;DHT22;1368;49.484;11.112;2023-11-21T11:39:39;13.20;99.90
2721;DHT22;1368;49.484;11.112;2023-11-21T11:42:11;13.20;99.90
2721;DHT22;1368;49.484;11.112;2023-11-21T11:47:21;13.30;99.90
2721;DHT22;1368;49.484;11.112;2023-11-21T11:50:10;13.30;99.90
2721;DHT22;1368;49.484;11.112;2023-11-21T11:52:48;13.30;99.90
2721;DHT22;1368;49.484;11.112;2023-11-21T11:55:17;13.40;99.90
2721;DHT22;1368;49.484;11.112;2023-11-21T11:57:48;13.60;99.90
2721;DHT22;1368;49.484;11.112;2023-11-21T12:02:55;13.40;99.90
2721;DHT22;1368;49.484;11.112;2023-11-21T12:05:26;13.60;99.90
2721;DHT22;1368;49.484;11.112;2023-11-21T12:07:57;13.40;99.90
2721;DHT22;1368;49.484;11.112;2023-11-21T12:10:27;13.10;99.90
2721;DHT22;1368;49.484;11.112;2023-11-21T12:12:55;13.20;99.90
2721;DHT22;1368;49.484;11.112;2023-11-21T12:15:22;13.20;99.90
2721;DHT22;1368;49.484;11.112;2023-11-21T12:17:49;13.10;99.90
2721;DHT22;1368;49.484;11.112;2023-11-21T12:20:18;13.20;99.90
2721;DHT22;1368;49.484;11.112;2023-11-21T12:22:51;13.20;99.90
2721;DHT22;1368;49.484;11.112;2023-11-21T12:25:21;13.40;99.90
2721;DHT22;1368;49.484;11.112;2023-11-21T12:27:49;13.50;99.90
2721;DHT22;1368;49.484;11.112;2023-11-21T12:30:19;13.30;99.90
2721;DHT22;1368;49.484;11.112;2023-11-21T12:32:48;12.90;99.90
2721;DHT22;1368;49.484;11.112;2023-11-21T12:35:14;12.80;99.90
2721;DHT22;1368;49.484;11.112;2023-11-21T12:37:40;12.60;99.90
2721;DHT22;1368;49.484;11.112;2023-11-21T12:40:08;13.10;99.90
2721;DHT22;1368;49.484;11.112;2023-11-21T12:42:37;12.70;99.90
2721;DHT22;1368;49.484;11.112;2023-11-21T12:47:42;12.90;99.90
2721;DHT22;1368;49.484;11.112;2023-11-21T12:50:08;12.90;99.90
2721;DHT22;1368;49.484;11.112;2023-11-21T12:52:43;12.70;99.90
2721;DHT22;1368;49.484;11.112;2023-11-21T12:55:20;12.70;99.90
2721;DHT22;1368;49.484;11.112;2023-11-21T12:57:53;12.90;99.90
2721;DHT22;1368;49.484;11.112;2023-11-21T13:00:22;13.20;99.90
2721;DHT22;1368;49.484;11.112;2023-11-21T13:02:54;13.10;99.90
2721;DHT22;1368;49.484;11.112;2023-11-21T13:05:33;13.70;99.90
2721;DHT22;1368;49.484;11.112;2023-11-21T13:08:01;13.00;99.90
2721;DHT22;1368;49.484;11.112;2023-11-21T13:10:34;12.80;99.90
2721;DHT22;1368;49.484;11.112;2023-11-21T13:13:02;12.70;99.90
2721;DHT22;1368;49.484;11.112;2023-11-21T13:15:31;12.70;99.90
2721;DHT22;1368;49.484;11.112;2023-11-21T13:17:58;12.60;99.90
2721;DHT22;1368;49.484;11.112;2023-11-21T13:20:24;12.90;99.90
2721;DHT22;1368;49.484;11.112;2023-11-21T13:22:54;13.20;99.90
2721;DHT22;1368;49.484;11.112;2023-11-21T13:25:24;13.40;99.90
2721;DHT22;1368;49.484;11.112;2023-11-21T13:27:53;13.70;99.90
2721;DHT22;1368;49.484;11.112;2023-11-21T13:30:19;12.70;99.90
2721;DHT22;1368;49.484;11.112;2023-11-21T13:32:51;12.40;99.90
2721;DHT22;1368;49.484;11.112;2023-11-21T13:35:20;12.40;99.90
2721;DHT22;1368;49.484;11.112;2023-11-21T13:37:50;12.20;99.90
2721;DHT22;1368;49.484;11.112;2023-11-21T13:40:22;12.30;99.90
2721;DHT22;1368;49.484;11.112;2023-11-21T13:42:51;12.40;99.90
2721;DHT22;1368;49.484;11.112;2023-11-21T13:45:21;12.20;99.90
2721;DHT22;1368;49.484;11.112;2023-11-21T13:47:51;12.10;99.90
2721;DHT22;1368;49.484;11.112;2023-11-21T13:50:18;12.10;99.90
2721;DHT22;1368;49.484;11.112;2023-11-21T13:52:49;12.10;99.90
2721;DHT22;1368;49.484;11.112;2023-11-21T13:55:27;12.20;99.90
2721;DHT22;1368;49.484;11.112;2023-11-21T13:57:52;12.40;99.90
2721;DHT22;1368;49.484;11.112;2023-11-21T14:00:18;12.60;99.90
2721;DHT22;1368;49.484;11.112;2023-11-21T14:03:08;12.80;99.90
2721;DHT22;1368;49.484;11.112;2023-11-21T14:05:43;12.90;99.90
2721;DHT22;1368;49.484;11.112;2023-11-21T14:08:10;12.80;99.90
2721;DHT22;1368;49.484;11.112;2023-11-21T14:10:37;12.90;99.90
2721;DHT22;1368;49.484;11.112;2023-11-21T14:13:09;13.10;99.90
2721;DHT22;1368;49.484;11.112;2023-11-21T14:15:41;13.30;99.90
2721;DHT22;1368;49.484;11.112;2023-11-21T14:20:42;13.40;99.90
2721;DHT22;1368;49.484;11.112;2023-11-21T14:23:07;13.50;99.90
2721;DHT22;1368;49.484;11.112;2023-11-21T14:25:37;13.50;99.90
2721;DHT22;1368;49.484;11.112;2023-11-21T14:28:03;13.30;99.90
2721;DHT22;1368;49.484;11.112;2023-11-21T14:30:30;13.20;99.90
2721;DHT22;1368;49.484;11.112;2023-11-21T14:32:58;13.20;99.90
2721;DHT22;1368;49.484;11.112;2023-11-21T14:35:24;13.20;99.90
2721;DHT22;1368;49.484;11.112;2023-11-21T14:37:50;13.30;99.90
2721;DHT22;1368;49.484;11.112;2023-11-21T14:40:15;13.30;99.90
2721;DHT22;1368;49.484;11.112;2023-11-21T14:42:44;13.20;99.90
2721;DHT22;1368;49.484;11.112;2023-11-21T14:45:13;12.90;99.90
2721;DHT22;1368;49.484;11.112;2023-11-21T14:47:41;12.40;99.90
2721;DHT22;1368;49.484;11.112;2023-11-21T14:50:12;12.30;99.90
2721;DHT22;1368;49.484;11.112;2023-11-21T14:53:04;12.00;99.90
2721;DHT22;1368;49.484;11.112;2023-11-21T14:55:32;11.90;99.90
2721;DHT22;1368;49.484;11.112;2023-11-21T14:58:04;11.60;99.90
2721;DHT22;1368;49.484;11.112;2023-11-21T15:00:30;11.50;99.90
2721;DHT22;1368;49.484;11.112;2023-11-21T15:02:59;11.50;99.90
2721;DHT22;1368;49.484;11.112;2023-11-21T15:05:25;11.60;99.90
2721;DHT22;1368;49.484;11.112;2023-11-21T15:07:53;11.50;99.90
2721;DHT22;1368;49.484;11.112;2023-11-21T15:10:23;12.00;99.90
2721;DHT22;1368;49.484;11.112;2023-11-21T15:13:03;11.40;99.90
2721;DHT22;1368;49.484;11.112;2023-11-21T15:15:29;11.10;99.90
2721;DHT22;1368;49.484;11.112;2023-11-21T15:17:57;11.10;99.90
2721;DHT22;1368;49.484;11.112;2023-11-21T15:20:22;11.10;99.90
2721;DHT22;1368;49.484;11.112;2023-11-21T15:22:48;11.10;99.90
2721;DHT22;1368;49.484;11.112;2023-11-21T15:25:13;11.20;99.90
2721;DHT22;1368;49.484;11.112;2023-11-21T15:27:39;11.00;99.90
2721;DHT22;1368;49.484;11.112;2023-11-21T15:30:06;10.90;99.90
2721;DHT22;1368;49.484;11.112;2023-11-21T15:32:32;11.00;99.90
2721;DHT22;1368;49.484;11.112;2023-11-21T15:34:58;11.00;99.90
2721;DHT22;1368;49.484;11.112;2023-11-21T15:37:23;11.10;99.90
2721;DHT22;1368;49.484;11.112;2023-11-21T15:39:51;11.00;99.90
2721;DHT22;1368;49.484;11.112;2023-11-21T15:42:17;11.00;99.90
2721;DHT22;1368;49.484;11.112;2023-11-21T15:44:42;10.90;99.90
2721;DHT22;1368;49.484;11.112;2023-11-21T15:47:08;10.80;99.90
2721;DHT22;1368;49.484;11.112;2023-11-21T15:49:34;11.30;99.90
2721;DHT22;1368;49.484;11.112;2023-11-21T15:52:02;10.70;99.90
2721;DHT22;1368;49.484;11.112;2023-11-21T15:54:28;10.80;99.90
2721;DHT22;1368;49.484;11.112;2023-11-21T15:56:55;10.90;99.90
2721;DHT22;1368;49.484;11.112;2023-11-21T15:59:23;10.80;99.90
2721;DHT22;1368;49.484;11.112;2023-11-21T16:01:49;10.70;99.90
2721;DHT22;1368;49.484;11.112;2023-11-21T16:04:15;10.60;99.90
2721;DHT22;1368;49.484;11.112;2023-11-21T16:06:45;10.30;99.90
2721;DHT22;1368;49.484;11.112;2023-11-21T16:09:11;11.50;99.90
2721;DHT22;1368;49.484;11.112;2023-11-21T16:12:02;10.20;99.90
2721;DHT22;1368;49.484;11.112;2023-11-21T16:14:33;10.20;99.90